Terminal Aerodrome Forecast
Issued by NWS

Home | Current Version | Previous Version | Text Only | Print | Product List | Glossary On
Versions: 1 2 3 4 5 6 7 8 9 10 11 12
000
FTAK31 PAJN 260500
TAFAPG
TAF
PAPG 260536Z 2606/2706 VRB03KT P6SM -SHRA SCT010 OVC020
     FM261300 00000KT 3SM BCFG VCSH SCT006 BKN020 OVC030
     FM261800 00000KT 6SM BCFG VCSH FEW006 BKN020 OVC030
     FM270100 00000KT 5SM -RA BR FEW006 BKN020 OVC030
      AMD LTD TO CLD VIS AND WIND 2606/2615=

USA.gov is the U.S. government's official web portal to all federal, state and local government web resources and services.